sensor_id;sensor_type;location;lat;lon;timestamp;temperature;humidity
5846;DHT22;2949;50.778;7.094;2022-10-20T00:00:20;12.20;99.90
5846;DHT22;2949;50.778;7.094;2022-10-20T00:02:47;12.30;99.90
5846;DHT22;2949;50.778;7.094;2022-10-20T00:05:12;12.30;99.90
5846;DHT22;2949;50.778;7.094;2022-10-20T00:07:38;12.30;99.90
5846;DHT22;2949;50.778;7.094;2022-10-20T00:10:04;12.30;99.90
5846;DHT22;2949;50.778;7.094;2022-10-20T00:12:30;12.30;99.90
5846;DHT22;2949;50.778;7.094;2022-10-20T00:14:55;12.30;99.90
5846;DHT22;2949;50.778;7.094;2022-10-20T00:17:21;12.20;99.90
5846;DHT22;2949;50.778;7.094;2022-10-20T00:19:47;12.20;99.90
5846;DHT22;2949;50.778;7.094;2022-10-20T00:22:13;12.20;99.90
5846;DHT22;2949;50.778;7.094;2022-10-20T00:24:38;12.10;99.90
5846;DHT22;2949;50.778;7.094;2022-10-20T00:27:04;12.10;99.90
5846;DHT22;2949;50.778;7.094;2022-10-20T00:29:30;12.10;99.90
5846;DHT22;2949;50.778;7.094;2022-10-20T00:31:55;12.10;99.90
5846;DHT22;2949;50.778;7.094;2022-10-20T00:34:21;12.10;99.90
5846;DHT22;2949;50.778;7.094;2022-10-20T00:36:46;12.10;99.90
5846;DHT22;2949;50.778;7.094;2022-10-20T00:39:12;12.00;99.90
5846;DHT22;2949;50.778;7.094;2022-10-20T00:41:37;11.90;99.90
5846;DHT22;2949;50.778;7.094;2022-10-20T00:47:10;11.80;99.90
5846;DHT22;2949;50.778;7.094;2022-10-20T00:49:37;11.70;99.90
5846;DHT22;2949;50.778;7.094;2022-10-20T00:52:03;11.70;99.90
5846;DHT22;2949;50.778;7.094;2022-10-20T00:54:29;11.70;99.90
5846;DHT22;2949;50.778;7.094;2022-10-20T00:56:56;11.60;99.90
5846;DHT22;2949;50.778;7.094;2022-10-20T00:59:27;11.60;99.90
5846;DHT22;2949;50.778;7.094;2022-10-20T01:01:54;11.50;99.90
5846;DHT22;2949;50.778;7.094;2022-10-20T01:04:19;11.50;99.90
5846;DHT22;2949;50.778;7.094;2022-10-20T01:06:45;11.50;99.90
5846;DHT22;2949;50.778;7.094;2022-10-20T01:09:10;11.50;99.90
5846;DHT22;2949;50.778;7.094;2022-10-20T01:11:48;11.50;99.90
5846;DHT22;2949;50.778;7.094;2022-10-20T01:14:30;11.50;99.90
5846;DHT22;2949;50.778;7.094;2022-10-20T01:28:01;11.40;99.90
5846;DHT22;2949;50.778;7.094;2022-10-20T01:30:28;11.30;99.90
5846;DHT22;2949;50.778;7.094;2022-10-20T01:38:47;11.30;99.90
5846;DHT22;2949;50.778;7.094;2022-10-20T01:41:42;11.30;99.90
5846;DHT22;2949;50.778;7.094;2022-10-20T01:44:11;11.20;99.90
5846;DHT22;2949;50.778;7.094;2022-10-20T01:46:40;11.20;99.90
5846;DHT22;2949;50.778;7.094;2022-10-20T01:49:07;11.20;99.90
5846;DHT22;2949;50.778;7.094;2022-10-20T01:51:33;11.20;99.90
5846;DHT22;2949;50.778;7.094;2022-10-20T01:53:59;11.10;99.90
5846;DHT22;2949;50.778;7.094;2022-10-20T01:56:47;11.10;99.90
5846;DHT22;2949;50.778;7.094;2022-10-20T01:59:46;11.10;99.90
5846;DHT22;2949;50.778;7.094;2022-10-20T02:02:26;11.10;99.90
5846;DHT22;2949;50.778;7.094;2022-10-20T02:05:14;11.00;99.90
5846;DHT22;2949;50.778;7.094;2022-10-20T02:07:42;11.00;99.90
5846;DHT22;2949;50.778;7.094;2022-10-20T02:10:23;11.00;99.90
5846;DHT22;2949;50.778;7.094;2022-10-20T02:12:55;11.10;99.90
5846;DHT22;2949;50.778;7.094;2022-10-20T02:15:24;11.10;99.90
5846;DHT22;2949;50.778;7.094;2022-10-20T02:17:54;11.10;99.90
5846;DHT22;2949;50.778;7.094;2022-10-20T02:20:23;11.10;99.90
5846;DHT22;2949;50.778;7.094;2022-10-20T02:22:49;11.10;99.90
5846;DHT22;2949;50.778;7.094;2022-10-20T02:25:14;11.10;99.90
5846;DHT22;2949;50.778;7.094;2022-10-20T02:27:44;11.10;99.90
5846;DHT22;2949;50.778;7.094;2022-10-20T02:30:12;11.10;99.90
5846;DHT22;2949;50.778;7.094;2022-10-20T02:32:41;11.10;99.90
5846;DHT22;2949;50.778;7.094;2022-10-20T02:35:11;11.10;99.90
5846;DHT22;2949;50.778;7.094;2022-10-20T02:37:38;11.10;99.90
5846;DHT22;2949;50.778;7.094;2022-10-20T02:40:03;11.10;99.90
5846;DHT22;2949;50.778;7.094;2022-10-20T02:42:29;11.10;99.90
5846;DHT22;2949;50.778;7.094;2022-10-20T02:44:55;11.10;99.90
5846;DHT22;2949;50.778;7.094;2022-10-20T02:47:20;11.10;99.90
5846;DHT22;2949;50.778;7.094;2022-10-20T02:49:47;11.10;99.90
5846;DHT22;2949;50.778;7.094;2022-10-20T02:52:12;11.10;99.90
5846;DHT22;2949;50.778;7.094;2022-10-20T02:54:38;11.10;99.90
5846;DHT22;2949;50.778;7.094;2022-10-20T02:57:03;11.10;99.90
5846;DHT22;2949;50.778;7.094;2022-10-20T02:59:29;11.10;99.90
5846;DHT22;2949;50.778;7.094;2022-10-20T03:01:55;11.00;99.90
5846;DHT22;2949;50.778;7.094;2022-10-20T03:04:20;11.10;99.90
5846;DHT22;2949;50.778;7.094;2022-10-20T03:06:46;11.00;99.90
5846;DHT22;2949;50.778;7.094;2022-10-20T03:09:11;11.00;99.90
5846;DHT22;2949;50.778;7.094;2022-10-20T03:11:37;11.00;99.90
5846;DHT22;2949;50.778;7.094;2022-10-20T03:14:02;10.90;99.90
5846;DHT22;2949;50.778;7.094;2022-10-20T03:16:28;10.90;99.90
5846;DHT22;2949;50.778;7.094;2022-10-20T03:18:53;10.90;99.90
5846;DHT22;2949;50.778;7.094;2022-10-20T03:21:19;10.90;99.90
5846;DHT22;2949;50.778;7.094;2022-10-20T03:23:45;10.90;99.90
5846;DHT22;2949;50.778;7.094;2022-10-20T03:26:11;10.90;99.90
5846;DHT22;2949;50.778;7.094;2022-10-20T03:28:38;10.90;99.90
5846;DHT22;2949;50.778;7.094;2022-10-20T03:31:04;11.00;99.90
5846;DHT22;2949;50.778;7.094;2022-10-20T03:33:30;11.00;99.90
5846;DHT22;2949;50.778;7.094;2022-10-20T03:35:56;10.90;99.90
5846;DHT22;2949;50.778;7.094;2022-10-20T03:38:22;10.90;99.90
5846;DHT22;2949;50.778;7.094;2022-10-20T03:40:48;10.90;99.90
5846;DHT22;2949;50.778;7.094;2022-10-20T03:43:13;10.90;99.90
5846;DHT22;2949;50.778;7.094;2022-10-20T03:45:40;10.90;99.90
5846;DHT22;2949;50.778;7.094;2022-10-20T03:48:06;10.80;99.90
5846;DHT22;2949;50.778;7.094;2022-10-20T03:50:32;10.80;99.90
5846;DHT22;2949;50.778;7.094;2022-10-20T03:52:58;10.90;99.90
5846;DHT22;2949;50.778;7.094;2022-10-20T03:55:23;10.90;99.90
5846;DHT22;2949;50.778;7.094;2022-10-20T03:57:49;10.80;99.90
5846;DHT22;2949;50.778;7.094;2022-10-20T04:00:14;10.80;99.90
5846;DHT22;2949;50.778;7.094;2022-10-20T04:02:42;10.80;99.90
5846;DHT22;2949;50.778;7.094;2022-10-20T04:05:13;10.80;99.90
5846;DHT22;2949;50.778;7.094;2022-10-20T04:07:40;10.80;99.90
5846;DHT22;2949;50.778;7.094;2022-10-20T04:10:06;10.90;99.90
5846;DHT22;2949;50.778;7.094;2022-10-20T04:12:32;10.90;99.90
5846;DHT22;2949;50.778;7.094;2022-10-20T04:14:57;10.90;99.90
5846;DHT22;2949;50.778;7.094;2022-10-20T04:17:23;10.90;99.90
5846;DHT22;2949;50.778;7.094;2022-10-20T04:19:48;10.90;99.90
5846;DHT22;2949;50.778;7.094;2022-10-20T04:22:14;10.90;99.90
5846;DHT22;2949;50.778;7.094;2022-10-20T04:24:39;10.80;99.90
5846;DHT22;2949;50.778;7.094;2022-10-20T04:27:05;10.90;99.90
5846;DHT22;2949;50.778;7.094;2022-10-20T04:29:31;10.90;99.90
5846;DHT22;2949;50.778;7.094;2022-10-20T04:31:56;10.90;99.90
5846;DHT22;2949;50.778;7.094;2022-10-20T04:34:22;10.90;99.90
5846;DHT22;2949;50.778;7.094;2022-10-20T04:36:48;10.90;99.90
5846;DHT22;2949;50.778;7.094;2022-10-20T04:39:14;10.90;99.90
5846;DHT22;2949;50.778;7.094;2022-10-20T04:41:39;11.00;99.90
5846;DHT22;2949;50.778;7.094;2022-10-20T04:44:05;11.00;99.90
5846;DHT22;2949;50.778;7.094;2022-10-20T04:46:30;11.00;99.90
5846;DHT22;2949;50.778;7.094;2022-10-20T04:48:56;11.10;99.90
5846;DHT22;2949;50.778;7.094;2022-10-20T04:51:21;11.10;99.90
5846;DHT22;2949;50.778;7.094;2022-10-20T04:53:47;11.10;99.90
5846;DHT22;2949;50.778;7.094;2022-10-20T04:56:16;11.10;99.90
5846;DHT22;2949;50.778;7.094;2022-10-20T04:58:53;11.10;99.90
5846;DHT22;2949;50.778;7.094;2022-10-20T05:01:21;11.10;99.90
5846;DHT22;2949;50.778;7.094;2022-10-20T05:03:46;11.10;99.90
5846;DHT22;2949;50.778;7.094;2022-10-20T05:06:18;11.10;99.90
5846;DHT22;2949;50.778;7.094;2022-10-20T05:08:45;11.00;99.90
5846;DHT22;2949;50.778;7.094;2022-10-20T05:11:12;11.00;99.90
5846;DHT22;2949;50.778;7.094;2022-10-20T05:13:38;11.00;99.90
5846;DHT22;2949;50.778;7.094;2022-10-20T05:16:04;10.90;99.90
5846;DHT22;2949;50.778;7.094;2022-10-20T05:18:31;10.90;99.90
5846;DHT22;2949;50.778;7.094;2022-10-20T05:20:56;10.90;99.90
5846;DHT22;2949;50.778;7.094;2022-10-20T05:23:22;10.90;99.90
5846;DHT22;2949;50.778;7.094;2022-10-20T05:25:48;10.90;99.90
5846;DHT22;2949;50.778;7.094;2022-10-20T05:28:13;10.90;99.90
5846;DHT22;2949;50.778;7.094;2022-10-20T05:30:39;10.80;99.90
5846;DHT22;2949;50.778;7.094;2022-10-20T05:33:05;10.80;99.90
5846;DHT22;2949;50.778;7.094;2022-10-20T05:35:30;10.80;99.90
5846;DHT22;2949;50.778;7.094;2022-10-20T05:37:56;10.80;99.90
5846;DHT22;2949;50.778;7.094;2022-10-20T05:40:22;10.80;99.90
5846;DHT22;2949;50.778;7.094;2022-10-20T05:42:48;10.70;99.90
5846;DHT22;2949;50.778;7.094;2022-10-20T05:45:14;10.70;99.90
5846;DHT22;2949;50.778;7.094;2022-10-20T05:47:40;10.80;99.90
5846;DHT22;2949;50.778;7.094;2022-10-20T05:50:08;10.80;99.90
5846;DHT22;2949;50.778;7.094;2022-10-20T05:52:34;10.80;99.90
5846;DHT22;2949;50.778;7.094;2022-10-20T05:55:00;10.80;99.90
5846;DHT22;2949;50.778;7.094;2022-10-20T05:57:25;10.80;99.90
5846;DHT22;2949;50.778;7.094;2022-10-20T05:59:51;10.90;99.90
5846;DHT22;2949;50.778;7.094;2022-10-20T06:02:16;10.90;99.90
5846;DHT22;2949;50.778;7.094;2022-10-20T06:04:42;10.90;99.90
5846;DHT22;2949;50.778;7.094;2022-10-20T06:07:07;10.80;99.90
5846;DHT22;2949;50.778;7.094;2022-10-20T06:09:36;10.80;99.90
5846;DHT22;2949;50.778;7.094;2022-10-20T06:12:03;10.80;99.90
5846;DHT22;2949;50.778;7.094;2022-10-20T06:14:28;10.90;99.90
5846;DHT22;2949;50.778;7.094;2022-10-20T06:16:55;10.90;99.90
5846;DHT22;2949;50.778;7.094;2022-10-20T06:19:22;10.80;99.90
5846;DHT22;2949;50.778;7.094;2022-10-20T06:21:48;10.70;99.90
5846;DHT22;2949;50.778;7.094;2022-10-20T06:24:13;10.70;99.90
5846;DHT22;2949;50.778;7.094;2022-10-20T06:26:41;10.70;99.90
5846;DHT22;2949;50.778;7.094;2022-10-20T06:29:10;10.80;99.90
5846;DHT22;2949;50.778;7.094;2022-10-20T06:31:38;11.00;99.90
5846;DHT22;2949;50.778;7.094;2022-10-20T06:34:06;10.90;99.90
5846;DHT22;2949;50.778;7.094;2022-10-20T06:36:36;11.00;99.90
5846;DHT22;2949;50.778;7.094;2022-10-20T06:39:04;11.00;99.90
5846;DHT22;2949;50.778;7.094;2022-10-20T06:41:30;11.10;99.90
5846;DHT22;2949;50.778;7.094;2022-10-20T06:43:56;11.10;99.90
5846;DHT22;2949;50.778;7.094;2022-10-20T06:46:28;11.20;99.90
5846;DHT22;2949;50.778;7.094;2022-10-20T06:48:53;11.30;99.90
5846;DHT22;2949;50.778;7.094;2022-10-20T06:51:19;11.40;99.90
5846;DHT22;2949;50.778;7.094;2022-10-20T06:53:46;11.40;99.90
5846;DHT22;2949;50.778;7.094;2022-10-20T06:56:15;11.50;99.90
5846;DHT22;2949;50.778;7.094;2022-10-20T06:58:42;11.50;99.90
5846;DHT22;2949;50.778;7.094;2022-10-20T07:01:13;11.60;99.90
5846;DHT22;2949;50.778;7.094;2022-10-20T07:03:42;11.60;99.90
5846;DHT22;2949;50.778;7.094;2022-10-20T07:06:13;11.70;99.90
5846;DHT22;2949;50.778;7.094;2022-10-20T07:08:39;11.80;99.90
5846;DHT22;2949;50.778;7.094;2022-10-20T07:11:06;11.80;99.90
5846;DHT22;2949;50.778;7.094;2022-10-20T07:13:34;11.90;99.90
5846;DHT22;2949;50.778;7.094;2022-10-20T07:16:00;11.90;99.90
5846;DHT22;2949;50.778;7.094;2022-10-20T07:18:27;12.00;99.90
5846;DHT22;2949;50.778;7.094;2022-10-20T07:20:58;12.00;99.90
5846;DHT22;2949;50.778;7.094;2022-10-20T07:23:25;12.00;99.90
5846;DHT22;2949;50.778;7.094;2022-10-20T07:25:51;12.10;99.90
5846;DHT22;2949;50.778;7.094;2022-10-20T07:28:17;12.10;99.90
5846;DHT22;2949;50.778;7.094;2022-10-20T07:30:45;12.10;99.90
5846;DHT22;2949;50.778;7.094;2022-10-20T07:33:10;12.10;99.90
5846;DHT22;2949;50.778;7.094;2022-10-20T07:35:36;12.20;99.90
5846;DHT22;2949;50.778;7.094;2022-10-20T07:38:01;12.30;99.90
5846;DHT22;2949;50.778;7.094;2022-10-20T07:40:27;12.30;99.90
5846;DHT22;2949;50.778;7.094;2022-10-20T07:42:53;12.30;99.90
5846;DHT22;2949;50.778;7.094;2022-10-20T07:45:19;12.30;99.90
5846;DHT22;2949;50.778;7.094;2022-10-20T07:47:44;12.30;99.90
5846;DHT22;2949;50.778;7.094;2022-10-20T07:50:10;12.40;99.90
5846;DHT22;2949;50.778;7.094;2022-10-20T07:52:37;12.40;99.90
5846;DHT22;2949;50.778;7.094;2022-10-20T07:55:03;12.50;99.90
5846;DHT22;2949;50.778;7.094;2022-10-20T07:57:29;12.60;99.90
5846;DHT22;2949;50.778;7.094;2022-10-20T07:59:54;12.60;99.90
5846;DHT22;2949;50.778;7.094;2022-10-20T08:02:20;12.70;99.90
5846;DHT22;2949;50.778;7.094;2022-10-20T08:04:45;12.80;99.90
5846;DHT22;2949;50.778;7.094;2022-10-20T08:07:11;12.80;99.90
5846;DHT22;2949;50.778;7.094;2022-10-20T08:09:37;12.90;99.90
5846;DHT22;2949;50.778;7.094;2022-10-20T08:12:03;12.90;99.90
5846;DHT22;2949;50.778;7.094;2022-10-20T08:14:29;13.00;99.90
5846;DHT22;2949;50.778;7.094;2022-10-20T08:16:59;13.00;99.90
5846;DHT22;2949;50.778;7.094;2022-10-20T08:19:25;13.10;99.90
5846;DHT22;2949;50.778;7.094;2022-10-20T08:21:51;13.10;99.90
5846;DHT22;2949;50.778;7.094;2022-10-20T08:24:17;13.20;99.90
5846;DHT22;2949;50.778;7.094;2022-10-20T08:26:42;13.30;99.90
5846;DHT22;2949;50.778;7.094;2022-10-20T08:29:08;13.50;99.90
5846;DHT22;2949;50.778;7.094;2022-10-20T08:31:34;13.60;99.90
5846;DHT22;2949;50.778;7.094;2022-10-20T08:34:00;13.60;99.90
5846;DHT22;2949;50.778;7.094;2022-10-20T08:36:26;13.70;99.90
5846;DHT22;2949;50.778;7.094;2022-10-20T08:38:54;13.70;99.90
5846;DHT22;2949;50.778;7.094;2022-10-20T08:41:24;13.70;99.90
5846;DHT22;2949;50.778;7.094;2022-10-20T08:43:53;13.70;99.90
5846;DHT22;2949;50.778;7.094;2022-10-20T08:46:22;13.60;99.90
5846;DHT22;2949;50.778;7.094;2022-10-20T08:48:50;13.50;99.90
5846;DHT22;2949;50.778;7.094;2022-10-20T08:51:21;13.40;99.90
5846;DHT22;2949;50.778;7.094;2022-10-20T08:53:49;13.30;99.90
5846;DHT22;2949;50.778;7.094;2022-10-20T08:56:19;13.30;99.90
5846;DHT22;2949;50.778;7.094;2022-10-20T08:58:47;13.30;99.90
5846;DHT22;2949;50.778;7.094;2022-10-20T09:01:27;13.30;99.90
5846;DHT22;2949;50.778;7.094;2022-10-20T09:04:17;13.40;99.90
5846;DHT22;2949;50.778;7.094;2022-10-20T09:06:45;13.40;99.90
5846;DHT22;2949;50.778;7.094;2022-10-20T09:09:15;13.40;99.90
5846;DHT22;2949;50.778;7.094;2022-10-20T09:11:41;13.30;99.90
5846;DHT22;2949;50.778;7.094;2022-10-20T09:14:10;13.30;99.90
5846;DHT22;2949;50.778;7.094;2022-10-20T09:16:36;13.30;99.90
5846;DHT22;2949;50.778;7.094;2022-10-20T09:19:06;13.30;99.90
5846;DHT22;2949;50.778;7.094;2022-10-20T09:21:37;13.30;99.90
5846;DHT22;2949;50.778;7.094;2022-10-20T09:24:05;13.30;99.90
5846;DHT22;2949;50.778;7.094;2022-10-20T09:26:39;13.40;99.90
5846;DHT22;2949;50.778;7.094;2022-10-20T09:29:10;13.40;99.90
5846;DHT22;2949;50.778;7.094;2022-10-20T09:34:22;13.60;99.90
5846;DHT22;2949;50.778;7.094;2022-10-20T09:36:51;13.70;99.90
5846;DHT22;2949;50.778;7.094;2022-10-20T09:39:22;13.70;99.90
5846;DHT22;2949;50.778;7.094;2022-10-20T09:41:58;13.80;99.90
5846;DHT22;2949;50.778;7.094;2022-10-20T09:44:25;13.90;99.90
5846;DHT22;2949;50.778;7.094;2022-10-20T09:46:51;14.00;99.90
5846;DHT22;2949;50.778;7.094;2022-10-20T09:49:33;14.00;99.90
5846;DHT22;2949;50.778;7.094;2022-10-20T09:52:00;14.10;99.90
5846;DHT22;2949;50.778;7.094;2022-10-20T09:54:27;14.10;99.90
5846;DHT22;2949;50.778;7.094;2022-10-20T09:57:03;14.10;99.90
5846;DHT22;2949;50.778;7.094;2022-10-20T09:59:36;14.10;99.90
5846;DHT22;2949;50.778;7.094;2022-10-20T10:04:49;14.00;99.90
5846;DHT22;2949;50.778;7.094;2022-10-20T10:12:51;13.60;99.90
5846;DHT22;2949;50.778;7.094;2022-10-20T10:17:48;13.60;99.90
5846;DHT22;2949;50.778;7.094;2022-10-20T10:22:41;13.70;99.90
5846;DHT22;2949;50.778;7.094;2022-10-20T10:25:25;13.70;99.90
5846;DHT22;2949;50.778;7.094;2022-10-20T10:28:02;13.70;99.90
5846;DHT22;2949;50.778;7.094;2022-10-20T10:30:33;13.70;99.90
5846;DHT22;2949;50.778;7.094;2022-10-20T10:32:59;13.70;99.90
5846;DHT22;2949;50.778;7.094;2022-10-20T10:35:32;13.70;99.90
5846;DHT22;2949;50.778;7.094;2022-10-20T10:38:02;13.50;99.90
5846;DHT22;2949;50.778;7.094;2022-10-20T10:40:34;13.50;99.90
5846;DHT22;2949;50.778;7.094;2022-10-20T10:43:04;13.50;99.90
5846;DHT22;2949;50.778;7.094;2022-10-20T10:45:55;13.50;99.90
5846;DHT22;2949;50.778;7.094;2022-10-20T10:51:40;13.40;99.90
5846;DHT22;2949;50.778;7.094;2022-10-20T10:56:57;13.30;99.90
5846;DHT22;2949;50.778;7.094;2022-10-20T10:59:34;13.30;99.90
5846;DHT22;2949;50.778;7.094;2022-10-20T11:07:54;13.20;99.90
5846;DHT22;2949;50.778;7.094;2022-10-20T11:13:16;13.30;99.90
5846;DHT22;2949;50.778;7.094;2022-10-20T11:27:10;13.50;99.90
5846;DHT22;2949;50.778;7.094;2022-10-20T11:29:54;13.50;99.90
5846;DHT22;2949;50.778;7.094;2022-10-20T11:32:48;13.50;99.90
5846;DHT22;2949;50.778;7.094;2022-10-20T11:35:41;13.60;99.90
5846;DHT22;2949;50.778;7.094;2022-10-20T11:38:26;13.60;99.90
5846;DHT22;2949;50.778;7.094;2022-10-20T11:43:42;13.50;99.90
5846;DHT22;2949;50.778;7.094;2022-10-20T11:46:15;13.40;99.90
5846;DHT22;2949;50.778;7.094;2022-10-20T11:48:52;13.40;99.90
5846;DHT22;2949;50.778;7.094;2022-10-20T11:51:42;13.40;99.90
5846;DHT22;2949;50.778;7.094;2022-10-20T11:54:40;13.30;99.90
5846;DHT22;2949;50.778;7.094;2022-10-20T11:57:35;13.30;99.90
5846;DHT22;2949;50.778;7.094;2022-10-20T12:00:14;13.10;99.90
5846;DHT22;2949;50.778;7.094;2022-10-20T12:03:25;13.00;99.90
5846;DHT22;2949;50.778;7.094;2022-10-20T12:08:49;12.90;99.90
5846;DHT22;2949;50.778;7.094;2022-10-20T12:17:03;12.80;99.90
5846;DHT22;2949;50.778;7.094;2022-10-20T12:19:32;12.90;99.90
5846;DHT22;2949;50.778;7.094;2022-10-20T12:27:22;12.90;99.90
5846;DHT22;2949;50.778;7.094;2022-10-20T12:32:56;12.90;99.90
5846;DHT22;2949;50.778;7.094;2022-10-20T12:35:27;12.90;99.90
5846;DHT22;2949;50.778;7.094;2022-10-20T12:37:56;12.90;99.90
5846;DHT22;2949;50.778;7.094;2022-10-20T12:40:40;12.90;99.90
5846;DHT22;2949;50.778;7.094;2022-10-20T12:45:49;13.00;99.90
5846;DHT22;2949;50.778;7.094;2022-10-20T12:48:21;13.10;99.90
5846;DHT22;2949;50.778;7.094;2022-10-20T12:50:49;13.10;99.90
5846;DHT22;2949;50.778;7.094;2022-10-20T12:53:26;13.10;99.90
5846;DHT22;2949;50.778;7.094;2022-10-20T12:56:09;13.20;99.90
5846;DHT22;2949;50.778;7.094;2022-10-20T12:58:37;13.20;99.90
5846;DHT22;2949;50.778;7.094;2022-10-20T13:03:36;13.30;99.90
5846;DHT22;2949;50.778;7.094;2022-10-20T13:11:40;13.40;99.90
5846;DHT22;2949;50.778;7.094;2022-10-20T13:14:17;13.50;99.90
5846;DHT22;2949;50.778;7.094;2022-10-20T13:17:04;13.50;99.90
5846;DHT22;2949;50.778;7.094;2022-10-20T13:19:44;13.60;99.90
5846;DHT22;2949;50.778;7.094;2022-10-20T13:22:36;13.70;99.90
5846;DHT22;2949;50.778;7.094;2022-10-20T13:25:08;13.70;99.90
5846;DHT22;2949;50.778;7.094;2022-10-20T13:27:36;13.70;99.90
5846;DHT22;2949;50.778;7.094;2022-10-20T13:30:06;13.80;99.90
5846;DHT22;2949;50.778;7.094;2022-10-20T13:35:31;13.80;99.90
5846;DHT22;2949;50.778;7.094;2022-10-20T13:38:03;13.80;99.90
5846;DHT22;2949;50.778;7.094;2022-10-20T13:43:34;13.80;99.90
5846;DHT22;2949;50.778;7.094;2022-10-20T13:46:18;13.90;99.90
5846;DHT22;2949;50.778;7.094;2022-10-20T13:51:31;14.20;99.90
5846;DHT22;2949;50.778;7.094;2022-10-20T13:54:01;14.20;99.90
5846;DHT22;2949;50.778;7.094;2022-10-20T13:56:32;14.20;99.90
5846;DHT22;2949;50.778;7.094;2022-10-20T13:58:59;14.10;99.90
5846;DHT22;2949;50.778;7.094;2022-10-20T14:01:28;14.20;99.90
5846;DHT22;2949;50.778;7.094;2022-10-20T14:03:53;14.20;99.90
5846;DHT22;2949;50.778;7.094;2022-10-20T14:06:33;14.20;99.90
5846;DHT22;2949;50.778;7.094;2022-10-20T14:09:09;14.20;99.90
5846;DHT22;2949;50.778;7.094;2022-10-20T14:11:35;14.30;99.90
5846;DHT22;2949;50.778;7.094;2022-10-20T14:14:01;14.30;99.90
5846;DHT22;2949;50.778;7.094;2022-10-20T14:16:28;14.40;99.90
5846;DHT22;2949;50.778;7.094;2022-10-20T14:19:06;14.50;99.90
5846;DHT22;2949;50.778;7.094;2022-10-20T14:21:47;14.60;99.90
5846;DHT22;2949;50.778;7.094;2022-10-20T14:24:27;14.60;99.90
5846;DHT22;2949;50.778;7.094;2022-10-20T14:26:55;14.60;99.90
5846;DHT22;2949;50.778;7.094;2022-10-20T14:29:22;14.50;99.90
5846;DHT22;2949;50.778;7.094;2022-10-20T14:31:49;14.50;99.90
5846;DHT22;2949;50.778;7.094;2022-10-20T14:34:21;14.40;99.90
5846;DHT22;2949;50.778;7.094;2022-10-20T14:36:48;14.50;99.90
5846;DHT22;2949;50.778;7.094;2022-10-20T14:39:29;14.50;99.90
5846;DHT22;2949;50.778;7.094;2022-10-20T14:41:58;14.50;99.90
5846;DHT22;2949;50.778;7.094;2022-10-20T14:44:24;14.50;99.90
5846;DHT22;2949;50.778;7.094;2022-10-20T14:46:50;14.60;99.90
5846;DHT22;2949;50.778;7.094;2022-10-20T14:49:30;14.60;99.90
5846;DHT22;2949;50.778;7.094;2022-10-20T14:54:45;14.50;99.90
5846;DHT22;2949;50.778;7.094;2022-10-20T14:59:50;14.50;99.90
5846;DHT22;2949;50.778;7.094;2022-10-20T15:02:26;14.40;99.90
5846;DHT22;2949;50.778;7.094;2022-10-20T15:04:52;14.40;99.90
5846;DHT22;2949;50.778;7.094;2022-10-20T15:07:27;14.30;99.90
5846;DHT22;2949;50.778;7.094;2022-10-20T15:10:05;14.40;99.90
5846;DHT22;2949;50.778;7.094;2022-10-20T15:12:41;14.40;99.90
5846;DHT22;2949;50.778;7.094;2022-10-20T15:17:46;14.50;99.90
5846;DHT22;2949;50.778;7.094;2022-10-20T15:20:35;14.50;99.90
5846;DHT22;2949;50.778;7.094;2022-10-20T15:23:17;14.50;99.90
5846;DHT22;2949;50.778;7.094;2022-10-20T15:28:24;14.60;99.90
5846;DHT22;2949;50.778;7.094;2022-10-20T15:30:51;14.60;99.90
5846;DHT22;2949;50.778;7.094;2022-10-20T15:33:16;14.60;99.90
5846;DHT22;2949;50.778;7.094;2022-10-20T15:35:42;14.50;99.90
5846;DHT22;2949;50.778;7.094;2022-10-20T15:38:12;14.50;99.90
5846;DHT22;2949;50.778;7.094;2022-10-20T15:40:37;14.40;99.90
5846;DHT22;2949;50.778;7.094;2022-10-20T15:43:03;14.40;99.90
5846;DHT22;2949;50.778;7.094;2022-10-20T15:45:36;14.40;99.90
5846;DHT22;2949;50.778;7.094;2022-10-20T15:48:02;14.30;99.90
5846;DHT22;2949;50.778;7.094;2022-10-20T15:50:28;14.30;99.90
5846;DHT22;2949;50.778;7.094;2022-10-20T15:52:53;14.30;99.90
5846;DHT22;2949;50.778;7.094;2022-10-20T15:55:30;14.30;99.90
5846;DHT22;2949;50.778;7.094;2022-10-20T15:57:56;14.30;99.90
5846;DHT22;2949;50.778;7.094;2022-10-20T16:00:24;14.30;99.90
5846;DHT22;2949;50.778;7.094;2022-10-20T16:02:50;14.30;99.90
5846;DHT22;2949;50.778;7.094;2022-10-20T16:05:17;14.20;99.90
5846;DHT22;2949;50.778;7.094;2022-10-20T16:07:43;14.20;99.90
5846;DHT22;2949;50.778;7.094;2022-10-20T16:10:10;14.20;99.90
5846;DHT22;2949;50.778;7.094;2022-10-20T16:12:37;14.10;99.90
5846;DHT22;2949;50.778;7.094;2022-10-20T16:15:05;14.10;99.90
5846;DHT22;2949;50.778;7.094;2022-10-20T16:17:31;14.00;99.90
5846;DHT22;2949;50.778;7.094;2022-10-20T16:19:56;14.00;99.90
5846;DHT22;2949;50.778;7.094;2022-10-20T16:22:22;14.00;99.90
5846;DHT22;2949;50.778;7.094;2022-10-20T16:24:47;14.00;99.90
5846;DHT22;2949;50.778;7.094;2022-10-20T16:27:14;14.00;99.90
5846;DHT22;2949;50.778;7.094;2022-10-20T16:29:40;13.90;99.90
5846;DHT22;2949;50.778;7.094;2022-10-20T16:32:05;13.90;99.90
5846;DHT22;2949;50.778;7.094;2022-10-20T16:34:31;13.90;99.90
5846;DHT22;2949;50.778;7.094;2022-10-20T16:36:56;13.90;99.90
5846;DHT22;2949;50.778;7.094;2022-10-20T16:39:22;13.90;99.90
5846;DHT22;2949;50.778;7.094;2022-10-20T16:41:47;13.90;99.90
5846;DHT22;2949;50.778;7.094;2022-10-20T16:44:13;13.80;99.90
5846;DHT22;2949;50.778;7.094;2022-10-20T16:46:39;13.80;99.90
5846;DHT22;2949;50.778;7.094;2022-10-20T16:49:04;13.80;99.90
5846;DHT22;2949;50.778;7.094;2022-10-20T16:51:30;13.80;99.90
5846;DHT22;2949;50.778;7.094;2022-10-20T16:53:56;13.90;99.90
5846;DHT22;2949;50.778;7.094;2022-10-20T16:56:23;13.90;99.90
5846;DHT22;2949;50.778;7.094;2022-10-20T16:58:49;13.90;99.90
5846;DHT22;2949;50.778;7.094;2022-10-20T17:01:16;13.80;99.90
5846;DHT22;2949;50.778;7.094;2022-10-20T17:03:44;13.90;99.90
5846;DHT22;2949;50.778;7.094;2022-10-20T17:06:11;13.80;99.90
5846;DHT22;2949;50.778;7.094;2022-10-20T17:08:37;13.90;99.90
5846;DHT22;2949;50.778;7.094;2022-10-20T17:11:11;14.00;99.90
5846;DHT22;2949;50.778;7.094;2022-10-20T17:13:37;13.90;99.90
5846;DHT22;2949;50.778;7.094;2022-10-20T17:16:15;13.90;99.90
5846;DHT22;2949;50.778;7.094;2022-10-20T17:18:41;13.90;99.90
5846;DHT22;2949;50.778;7.094;2022-10-20T17:21:07;13.90;99.90
5846;DHT22;2949;50.778;7.094;2022-10-20T17:23:35;13.90;99.90
5846;DHT22;2949;50.778;7.094;2022-10-20T17:26:01;13.80;99.90
5846;DHT22;2949;50.778;7.094;2022-10-20T17:28:31;13.90;99.90
5846;DHT22;2949;50.778;7.094;2022-10-20T17:30:58;13.90;99.90
5846;DHT22;2949;50.778;7.094;2022-10-20T17:33:28;13.80;99.90
5846;DHT22;2949;50.778;7.094;2022-10-20T17:35:56;13.90;99.90
5846;DHT22;2949;50.778;7.094;2022-10-20T17:38:22;13.80;99.90
5846;DHT22;2949;50.778;7.094;2022-10-20T17:40:48;13.90;99.90
5846;DHT22;2949;50.778;7.094;2022-10-20T17:43:14;13.90;99.90
5846;DHT22;2949;50.778;7.094;2022-10-20T17:45:40;13.90;99.90
5846;DHT22;2949;50.778;7.094;2022-10-20T17:48:06;14.00;99.90
5846;DHT22;2949;50.778;7.094;2022-10-20T17:50:34;14.00;99.90
5846;DHT22;2949;50.778;7.094;2022-10-20T17:53:00;14.10;99.90
5846;DHT22;2949;50.778;7.094;2022-10-20T17:55:26;14.20;99.90
5846;DHT22;2949;50.778;7.094;2022-10-20T17:57:52;14.20;99.90
5846;DHT22;2949;50.778;7.094;2022-10-20T18:00:17;14.20;99.90
5846;DHT22;2949;50.778;7.094;2022-10-20T18:02:48;14.20;99.90
5846;DHT22;2949;50.778;7.094;2022-10-20T18:05:13;14.10;99.90